Terminal Aerodrome Forecast
Issued by NWS

Home | Current Version | Previous Version | Graphics & Text | Print | Product List | Glossary On
Versions: 1 2 3 4 5 6 7 8 9 10 11 12 13 14 15 16 17 18 19 20 21 22 23 24 25
604
FTUS43 KABR 241003 AAA
TAFATY
TAF AMD
KATY 241003Z 2410/2506 09006KT P6SM OVC006
      TEMPO 2411/2415 5SM BR OVC004
     FM241600 07011KT 2SM -SN OVC003
     FM250000 03014KT 2SM -SN OVC003
     FM250300 01015KT 2SM -SN OVC008
     FM250500 36015KT 3SM -SN OVC015=

USA.gov is the U.S. government's official web portal to all federal, state and local government web resources and services.